Time;durP1;ratioP1;P1;durP2;ratioP2;P2;SDS_P1;SDS_P2;PMS_P1;PMS_P2;Temp;Humidity;BMP_temperature;BMP_pressure;BME280_temperature;BME280_humidity;BME280_pressure;Samples;Min_cycle;Max_cycle;Signal;HPM_P1;HPM_P2
2022/10/15 00:00:39;;;;;;;52.63;29.80;;;9.30;99.90;8.60;100070;;;;553906;254;24219;-82
2022/10/15 00:03:06;;;;;;;56.90;29.77;;;9.30;99.90;8.60;100066;;;;563101;254;24172;-80
2022/10/15 00:05:41;;;;;;;55.13;33.27;;;9.30;99.90;8.60;100070;;;;554666;254;24267;-83
2022/10/15 00:08:08;;;;;;;57.23;30.93;;;9.30;99.90;8.50;100062;;;;554175;254;24161;-83
2022/10/15 00:10:36;;;;;;;55.27;32.57;;;9.30;99.90;8.40;100061;;;;554458;254;24231;-80
2022/10/15 00:13:03;;;;;;;60.27;31.67;;;9.20;99.90;8.40;100054;;;;562273;250;24154;-81
2022/10/15 00:15:29;;;;;;;59.33;32.57;;;9.10;99.90;8.30;100051;;;;553740;255;24217;-81
2022/10/15 00:17:57;;;;;;;59.57;32.27;;;9.00;99.90;8.20;100048;;;;562905;255;24144;-83
2022/10/15 00:20:25;;;;;;;54.87;31.03;;;8.90;99.90;8.20;100042;;;;554724;255;24226;-79
2022/10/15 00:22:53;;;;;;;79.57;49.10;;;8.90;99.90;8.20;100037;;;;549812;255;35803;-83
2022/10/15 00:25:21;;;;;;;76.77;42.27;;;8.90;99.90;8.20;100041;;;;554659;255;24186;-83
2022/10/15 00:27:49;;;;;;;59.87;33.20;;;8.90;99.90;8.20;100037;;;;554687;255;24216;-80
2022/10/15 00:30:17;;;;;;;58.53;32.10;;;9.00;99.90;8.20;100040;;;;554660;255;24144;-81
2022/10/15 00:32:45;;;;;;;62.20;32.33;;;8.90;99.90;8.20;100029;;;;554066;255;24177;-81
2022/10/15 00:35:13;;;;;;;52.90;30.83;;;9.00;99.90;8.20;100034;;;;554217;255;24176;-84
2022/10/15 00:37:43;;;;;;;59.37;32.20;;;8.90;99.90;8.20;100033;;;;554078;255;24176;-84
2022/10/15 00:40:15;;;;;;;59.40;30.73;;;8.90;99.90;8.10;100030;;;;554177;255;24153;-84
2022/10/15 00:42:39;;;;;;;65.73;30.80;;;8.90;99.90;8.00;100029;;;;561948;255;24160;-84
2022/10/15 00:45:13;;;;;;;54.20;30.50;;;8.80;99.90;8.00;100032;;;;554273;255;24157;-84
2022/10/15 00:47:38;;;;;;;58.53;33.90;;;8.70;99.90;8.00;100016;;;;561689;255;24164;-82
2022/10/15 00:50:14;;;;;;;53.30;30.93;;;8.70;99.90;8.00;100014;;;;554080;255;24165;-84
2022/10/15 00:52:57;;;;;;;60.17;32.83;;;8.80;99.90;8.10;100018;;;;553802;255;24156;-80
2022/10/15 00:55:33;;;;;;;59.17;34.00;;;8.80;99.90;8.10;100014;;;;553933;255;24207;-82
2022/10/15 00:58:01;;;;;;;52.93;32.47;;;8.90;99.90;8.20;100019;;;;553803;255;24168;-82
2022/10/15 01:00:29;;;;;;;61.67;31.60;;;8.90;99.90;8.30;100030;;;;554119;255;24172;-81
2022/10/15 01:02:57;;;;;;;62.63;33.10;;;9.00;99.90;8.30;100027;;;;554257;255;24158;-80
2022/10/15 01:05:25;;;;;;;60.97;33.33;;;9.00;99.90;8.40;100026;;;;554858;254;24175;-83
2022/10/15 01:07:54;;;;;;;56.10;33.10;;;9.20;99.90;8.50;100028;;;;555237;254;24155;-83
2022/10/15 01:10:22;;;;;;;57.90;33.97;;;9.20;99.90;8.50;100036;;;;555194;254;24153;-83
2022/10/15 01:12:55;;;;;;;62.27;36.07;;;9.30;99.90;8.70;100017;;;;555092;254;24242;-84
2022/10/15 01:15:26;;;;;;;60.60;34.03;;;9.40;99.90;8.70;100012;;;;554785;254;24189;-83
2022/10/15 01:17:56;;;;;;;62.53;36.87;;;9.40;99.90;8.70;100002;;;;562851;254;24157;-84
2022/10/15 01:20:39;;;;;;;58.47;35.20;;;9.50;99.90;8.70;100004;;;;554818;254;24162;-83
2022/10/15 01:23:24;;;;;;;66.37;37.07;;;9.50;99.90;8.80;99989;;;;563441;250;24160;-80
2022/10/15 01:26:29;;;;;;;73.23;37.30;;;9.50;99.90;8.80;99998;;;;554776;255;24230;-80
2022/10/15 01:29:11;;;;;;;73.13;36.13;;;9.50;99.90;8.80;99990;;;;554076;255;24183;-80
2022/10/15 01:31:54;;;;;;;66.60;37.07;;;9.50;99.90;8.80;99990;;;;554315;255;24148;-80
2022/10/15 01:34:40;;;;;;;67.50;37.80;;;9.50;99.90;8.80;99989;;;;554016;255;24149;-79
2022/10/15 01:37:20;;;;;;;68.23;39.80;;;9.50;99.90;8.70;99983;;;;554261;255;24156;-81
2022/10/15 01:39:50;;;;;;;74.10;39.90;;;9.50;99.90;8.70;99981;;;;552926;255;24175;-81
2022/10/15 01:42:19;;;;;;;65.93;36.77;;;9.40;99.90;8.70;99976;;;;553656;255;25224;-80
2022/10/15 01:44:53;;;;;;;64.80;34.83;;;9.40;99.90;8.70;99968;;;;554515;255;24212;-79
2022/10/15 01:47:23;;;;;;;68.47;39.17;;;9.40;99.90;8.70;99967;;;;562757;255;24165;-82
2022/10/15 01:49:51;;;;;;;67.03;37.67;;;9.40;99.90;8.70;99967;;;;562817;255;24145;-81
2022/10/15 01:52:25;;;;;;;74.43;39.80;;;9.50;99.90;8.70;99969;;;;554745;255;24142;-81
2022/10/15 01:54:53;;;;;;;74.80;39.73;;;9.40;99.90;8.70;99957;;;;554714;255;24175;-80
2022/10/15 01:57:21;;;;;;;67.00;37.83;;;9.50;99.90;8.80;99968;;;;562892;250;24161;-81
2022/10/15 01:59:53;;;;;;;62.57;37.30;;;9.50;99.90;8.80;99961;;;;554907;255;24161;-82
2022/10/15 02:02:17;;;;;;;67.97;38.43;;;9.50;99.90;8.80;99962;;;;554254;255;24252;-82
2022/10/15 02:04:48;;;;;;;66.30;39.60;;;9.50;99.90;8.80;99957;;;;554277;255;24160;-81
2022/10/15 02:07:21;;;;;;;70.33;39.43;;;9.50;99.90;8.80;99959;;;;562821;255;24218;-81
2022/10/15 02:10:04;;;;;;;69.83;37.83;;;9.50;99.90;8.80;99967;;;;554329;255;24229;-83
2022/10/15 02:13:00;;;;;;;67.83;37.70;;;9.50;99.90;8.80;99966;;;;562228;251;24149;-83
2022/10/15 02:15:30;;;;;;;73.67;39.07;;;9.50;99.90;8.80;99968;;;;554193;255;24175;-82
2022/10/15 02:18:28;;;;;;;71.97;38.70;;;9.50;99.90;8.80;99966;;;;551704;254;24171;-83
2022/10/15 02:21:06;;;;;;;68.80;36.70;;;9.50;99.90;8.80;99959;;;;555131;254;24178;-80
2022/10/15 02:23:42;;;;;;;76.93;39.07;;;9.50;99.90;8.80;99956;;;;554447;254;24191;-83
2022/10/15 02:26:10;;;;;;;70.07;39.43;;;9.60;99.90;8.90;99964;;;;555309;254;24166;-81
2022/10/15 02:28:38;;;;;;;68.27;39.57;;;9.60;99.90;8.90;99962;;;;554097;254;24232;-83
2022/10/15 02:31:05;;;;;;;69.47;38.87;;;9.60;99.90;8.80;99954;;;;554026;254;24235;-81
2022/10/15 02:33:36;;;;;;;72.00;40.97;;;9.60;99.90;8.80;99958;;;;562856;250;24162;-81
2022/10/15 02:36:02;;;;;;;69.73;38.10;;;9.50;99.90;8.80;99959;;;;554709;255;24222;-81
2022/10/15 02:38:30;;;;;;;74.13;40.90;;;9.50;99.90;8.80;99961;;;;554308;255;24175;-84
2022/10/15 02:41:01;;;;;;;71.80;39.47;;;9.50;99.90;8.80;99956;;;;554662;250;24160;-80
2022/10/15 02:43:29;;;;;;;71.97;39.57;;;9.50;99.90;8.80;99952;;;;562284;255;24300;-81
2022/10/15 02:45:54;;;;;;;68.63;38.20;;;9.50;99.90;8.80;99967;;;;552988;255;24171;-80
2022/10/15 02:48:22;;;;;;;72.77;38.50;;;9.50;99.90;8.80;99959;;;;554267;255;24154;-80
2022/10/15 02:50:50;;;;;;;67.13;38.33;;;9.50;99.90;8.70;99948;;;;554040;255;24165;-81
2022/10/15 02:53:19;;;;;;;69.00;38.57;;;9.50;99.90;8.70;99950;;;;554317;255;24138;-82
2022/10/15 02:55:47;;;;;;;71.93;37.10;;;9.50;99.90;8.70;99949;;;;554234;255;24194;-81
2022/10/15 02:58:15;;;;;;;67.07;36.33;;;9.50;99.90;8.70;99945;;;;554180;255;24161;-83
2022/10/15 03:00:43;;;;;;;71.13;38.73;;;9.50;99.90;8.70;99939;;;;554278;255;24169;-82
2022/10/15 03:03:11;;;;;;;76.10;39.77;;;9.50;99.90;8.70;99944;;;;554211;255;24150;-83
2022/10/15 03:05:39;;;;;;;76.13;37.33;;;9.40;99.90;8.70;99939;;;;554152;255;24164;-81
2022/10/15 03:08:07;;;;;;;74.43;38.90;;;9.40;99.90;8.80;99932;;;;554193;255;24198;-80
2022/10/15 03:10:35;;;;;;;68.77;37.83;;;9.50;99.90;8.80;99940;;;;554333;255;24173;-80
2022/10/15 03:13:04;;;;;;;68.50;37.27;;;9.50;99.90;8.80;99929;;;;554437;255;24169;-81
2022/10/15 03:15:35;;;;;;;69.80;37.47;;;9.50;99.90;8.80;99933;;;;562427;255;24146;-80
2022/10/15 03:18:00;;;;;;;76.57;38.03;;;9.50;99.90;8.80;99924;;;;554142;255;24165;-84
2022/10/15 03:20:27;;;;;;;88.27;39.43;;;9.50;99.90;8.80;99928;;;;554185;255;24170;-80
2022/10/15 03:22:56;;;;;;;98.57;58.97;;;9.50;99.90;8.80;99934;;;;549348;255;46676;-78
2022/10/15 03:25:24;;;;;;;72.30;43.93;;;9.50;99.90;8.80;99929;;;;554120;251;24186;-80
2022/10/15 03:27:52;;;;;;;89.67;40.47;;;9.50;99.90;8.80;99933;;;;554113;255;24227;-83
2022/10/15 03:30:20;;;;;;;67.53;37.43;;;9.50;99.90;8.80;99930;;;;555619;254;24145;-81
2022/10/15 03:32:48;;;;;;;80.70;39.60;;;9.50;99.90;8.80;99922;;;;555017;254;24225;-81
2022/10/15 03:35:16;;;;;;;72.80;40.20;;;9.50;99.90;8.80;99926;;;;554206;254;24145;-80
2022/10/15 03:37:44;;;;;;;66.07;39.30;;;9.50;99.90;8.70;99921;;;;555091;254;24168;-82
2022/10/15 03:40:12;;;;;;;82.43;41.77;;;9.50;99.90;8.70;99921;;;;554887;254;24176;-82
2022/10/15 03:42:44;;;;;;;75.27;39.10;;;9.40;99.90;8.60;99927;;;;554994;254;24160;-83
2022/10/15 03:45:10;;;;;;;69.10;41.27;;;9.30;99.90;8.60;99920;;;;554505;254;24158;-82
2022/10/15 03:47:38;;;;;;;74.33;40.47;;;9.30;99.90;8.60;99920;;;;554439;255;24173;-82
2022/10/15 03:50:10;;;;;;;72.23;41.17;;;9.30;99.90;8.60;99909;;;;554487;255;24172;-80
2022/10/15 03:52:35;;;;;;;78.33;41.60;;;9.30;99.90;8.60;99912;;;;562401;251;24165;-80
2022/10/15 03:55:03;;;;;;;75.50;41.80;;;9.30;99.90;8.60;99920;;;;562579;250;24161;-81
2022/10/15 03:57:31;;;;;;;77.60;40.77;;;9.30;99.90;8.60;99913;;;;562783;250;24178;-82
2022/10/15 03:59:59;;;;;;;74.70;39.93;;;9.40;99.90;8.70;99904;;;;554807;255;24202;-80
2022/10/15 04:02:28;;;;;;;83.17;40.67;;;9.40;99.90;8.70;99904;;;;554434;255;24161;-83
2022/10/15 04:04:56;;;;;;;81.03;40.07;;;9.40;99.90;8.70;99902;;;;553929;255;24157;-80
2022/10/15 04:07:24;;;;;;;107.40;60.78;;;9.30;99.90;8.60;99893;;;;549470;251;35697;-82
2022/10/15 04:09:52;;;;;;;85.70;43.53;;;9.30;99.90;8.60;99888;;;;554174;255;24174;-82
2022/10/15 04:12:23;;;;;;;81.77;40.60;;;9.30;99.90;8.60;99885;;;;554197;251;24144;-79
2022/10/15 04:14:48;;;;;;;71.40;39.60;;;9.30;99.90;8.50;99879;;;;553971;255;24159;-81
2022/10/15 04:17:16;;;;;;;80.50;40.40;;;9.20;99.90;8.50;99886;;;;554134;255;24212;-81
2022/10/15 04:19:44;;;;;;;79.83;41.90;;;9.20;99.90;8.40;99893;;;;554321;255;24163;-78
2022/10/15 04:22:12;;;;;;;76.03;39.57;;;9.10;99.90;8.40;99894;;;;554298;255;24138;-80
2022/10/15 04:24:39;;;;;;;82.87;40.73;;;9.10;99.90;8.40;99887;;;;554457;255;24219;-80
2022/10/15 04:27:07;;;;;;;86.67;41.67;;;9.10;99.90;8.30;99885;;;;554427;255;24378;-83
2022/10/15 04:29:35;;;;;;;97.63;40.67;;;9.10;99.90;8.30;99875;;;;554817;255;24150;-82
2022/10/15 04:32:03;;;;;;;83.80;40.97;;;9.10;99.90;8.30;99881;;;;554094;255;24176;-80
2022/10/15 04:34:31;;;;;;;90.07;43.00;;;9.10;99.90;8.30;99889;;;;553910;255;24152;-80
2022/10/15 04:37:00;;;;;;;73.77;39.03;;;9.00;99.90;8.30;99878;;;;553996;255;24194;-78
2022/10/15 04:39:28;;;;;;;81.30;40.30;;;9.00;99.90;8.30;99872;;;;554288;255;24194;-80
2022/10/15 04:41:56;;;;;;;78.83;40.43;;;9.00;99.90;8.30;99866;;;;564200;250;24199;-81
2022/10/15 04:44:24;;;;;;;92.70;43.63;;;9.00;99.90;8.30;99863;;;;555695;254;24167;-82
2022/10/15 04:46:52;;;;;;;88.53;42.73;;;9.00;99.90;8.20;99862;;;;563180;254;25372;-82
2022/10/15 04:49:19;;;;;;;81.07;40.93;;;9.00;99.90;8.20;99879;;;;555030;254;24265;-80
2022/10/15 04:51:47;;;;;;;89.80;44.90;;;8.90;99.90;8.20;99859;;;;554705;254;25204;-79
2022/10/15 04:54:18;;;;;;;88.43;43.17;;;8.90;99.90;8.20;99859;;;;554893;254;24152;-79
2022/10/15 04:56:43;;;;;;;89.63;42.17;;;8.90;99.90;8.20;99867;;;;554520;254;24204;-79
2022/10/15 04:59:12;;;;;;;91.33;43.93;;;8.90;99.90;8.20;99844;;;;555087;255;24172;-79
2022/10/15 05:01:40;;;;;;;81.73;41.13;;;8.90;99.90;8.20;99850;;;;554845;255;24182;-81
2022/10/15 05:04:08;;;;;;;77.50;41.73;;;8.90;99.90;8.20;99861;;;;554767;255;24162;-80
2022/10/15 05:06:36;;;;;;;83.20;41.03;;;8.90;99.90;8.30;99851;;;;554717;255;24160;-80
2022/10/15 05:09:04;;;;;;;84.83;43.00;;;9.00;99.90;8.30;99843;;;;554907;255;24220;-80
2022/10/15 05:11:33;;;;;;;96.80;42.73;;;9.00;99.90;8.30;99855;;;;554714;255;24167;-80
2022/10/15 05:14:01;;;;;;;79.80;41.83;;;9.00;99.90;8.30;99853;;;;554600;255;24159;-79
2022/10/15 05:16:29;;;;;;;83.23;43.30;;;9.10;99.90;8.40;99848;;;;554527;255;24191;-79
2022/10/15 05:19:00;;;;;;;75.67;44.63;;;9.10;99.90;8.40;99849;;;;562685;255;24156;-80
2022/10/15 05:21:31;;;;;;;94.47;40.80;;;9.10;99.90;8.40;99860;;;;562495;255;24150;-80
2022/10/15 05:23:55;;;;;;;85.60;42.53;;;9.10;99.90;8.40;99855;;;;554361;254;24155;-80
2022/10/15 05:26:23;;;;;;;86.47;41.47;;;9.10;99.90;8.50;99853;;;;554481;255;24149;-80
2022/10/15 05:28:55;;;;;;;98.03;45.40;;;9.20;99.90;8.50;99841;;;;554425;255;24173;-80
2022/10/15 05:31:20;;;;;;;92.37;40.87;;;9.20;99.90;8.60;99841;;;;562277;255;25268;-80
2022/10/15 05:33:48;;;;;;;96.83;45.40;;;9.30;99.90;8.60;99836;;;;553984;255;24231;-81
2022/10/15 05:36:19;;;;;;;106.00;45.10;;;9.30;99.90;8.60;99841;;;;554190;255;24157;-80
2022/10/15 05:38:50;;;;;;;98.10;44.97;;;9.40;99.90;8.70;99830;;;;554090;255;24157;-80
2022/10/15 05:41:18;;;;;;;85.43;39.43;;;9.30;99.90;8.70;99841;;;;554366;255;24159;-81
2022/10/15 05:43:46;;;;;;;91.73;43.17;;;9.40;99.90;8.70;99837;;;;562540;255;24184;-81
2022/10/15 05:46:14;;;;;;;107.73;43.23;;;9.40;99.90;8.80;99836;;;;562607;255;24145;-81
2022/10/15 05:48:43;;;;;;;100.37;43.80;;;9.50;99.90;8.80;99827;;;;553986;255;25216;-81
2022/10/15 05:51:11;;;;;;;90.67;43.67;;;9.50;99.90;8.70;99827;;;;553901;255;24200;-80
2022/10/15 05:53:39;;;;;;;83.73;42.63;;;9.50;99.90;8.80;99833;;;;555408;254;24186;-79
2022/10/15 05:56:09;;;;;;;89.73;41.10;;;9.50;99.90;8.80;99829;;;;563080;254;24167;-79
2022/10/15 05:58:38;;;;;;;104.23;44.50;;;9.60;99.90;8.90;99843;;;;554616;254;24164;-79
2022/10/15 06:01:06;;;;;;;84.17;43.60;;;9.50;99.90;8.90;99844;;;;554628;254;24187;-79
2022/10/15 06:03:31;;;;;;;75.93;38.30;;;9.60;99.90;9.00;99850;;;;559764;252;24162;-80
2022/10/15 06:05:59;;;;;;;95.37;43.93;;;9.70;99.90;9.00;99844;;;;562683;254;24170;-79
2022/10/15 06:08:30;;;;;;;86.53;43.63;;;9.80;99.90;9.10;99850;;;;554642;254;24148;-80
2022/10/15 06:10:59;;;;;;;84.93;42.53;;;9.80;99.90;9.20;99849;;;;554891;255;24165;-81
2022/10/15 06:13:23;;;;;;;104.10;46.83;;;9.90;99.90;9.30;99852;;;;554161;255;24172;-80
2022/10/15 06:15:51;;;;;;;95.97;43.73;;;10.00;99.90;9.30;99854;;;;554878;255;24193;-81
2022/10/15 06:18:20;;;;;;;85.30;43.83;;;10.10;99.90;9.40;99855;;;;563285;255;24160;-80
2022/10/15 06:20:51;;;;;;;85.23;42.23;;;10.10;99.90;9.40;99856;;;;563223;250;24172;-78
2022/10/15 06:23:22;;;;;;;87.33;42.73;;;10.10;99.90;9.50;99847;;;;554579;255;24163;-79
2022/10/15 06:25:48;;;;;;;92.00;44.83;;;10.20;99.90;9.50;99857;;;;562473;255;24163;-79
2022/10/15 06:28:16;;;;;;;90.40;43.37;;;10.20;99.90;9.60;99853;;;;563100;255;24168;-80
2022/10/15 06:30:44;;;;;;;98.20;45.00;;;10.30;99.90;9.60;99855;;;;562905;250;24170;-80
2022/10/15 06:33:12;;;;;;;89.30;42.80;;;10.40;99.90;9.60;99852;;;;554378;255;24188;-80
2022/10/15 06:35:40;;;;;;;93.77;44.07;;;10.40;99.90;9.70;99859;;;;563107;255;24230;-79
2022/10/15 06:38:07;;;;;;;90.47;43.27;;;10.40;99.90;9.80;99864;;;;563441;255;24175;-79
2022/10/15 06:40:35;;;;;;;96.50;45.87;;;10.50;99.90;9.80;99852;;;;563185;255;24164;-80
2022/10/15 06:43:10;;;;;;;87.53;42.40;;;10.50;99.90;9.80;99862;;;;562736;254;24171;-81
2022/10/15 06:45:37;;;;;;;91.60;43.43;;;10.60;99.90;9.90;99868;;;;562355;255;24152;-81
2022/10/15 06:48:05;;;;;;;93.17;45.50;;;10.60;99.90;9.90;99857;;;;562462;255;24158;-82
2022/10/15 06:50:36;;;;;;;78.17;40.33;;;10.60;99.90;9.90;99858;;;;562572;255;24155;-81
2022/10/15 06:53:01;;;;;;;91.33;43.33;;;10.70;99.90;9.90;99850;;;;562458;255;24170;-80
2022/10/15 06:55:29;;;;;;;84.70;44.47;;;10.60;99.90;9.90;99845;;;;562828;250;24166;-81
2022/10/15 06:57:58;;;;;;;95.43;44.30;;;10.60;99.90;9.80;99852;;;;563037;255;24131;-80
2022/10/15 07:00:26;;;;;;;88.80;41.47;;;10.60;99.90;9.80;99865;;;;562810;255;24195;-81
2022/10/15 07:02:57;;;;;;;92.77;44.83;;;10.60;99.90;9.90;99879;;;;554653;255;24142;-83
2022/10/15 07:05:25;;;;;;;96.20;43.17;;;10.60;99.90;10.00;99878;;;;564354;253;24163;-83
2022/10/15 07:07:55;;;;;;;80.53;41.63;;;10.70;99.90;10.00;99861;;;;563884;250;24214;-83
2022/10/15 07:10:27;;;;;;;82.37;41.27;;;10.80;99.90;10.20;99852;;;;555256;254;24219;-83
2022/10/15 07:12:54;;;;;;;89.37;41.03;;;10.90;99.90;10.30;99862;;;;562985;250;24176;-83
2022/10/15 07:15:20;;;;;;;86.40;44.30;;;11.10;99.90;10.50;99876;;;;563345;254;24178;-80
2022/10/15 07:17:50;;;;;;;82.23;42.47;;;11.20;99.90;10.60;99876;;;;562929;251;24135;-82
2022/10/15 07:20:18;;;;;;;88.00;44.30;;;11.30;99.90;10.70;99872;;;;562917;254;24153;-80
2022/10/15 07:22:55;;;;;;;88.10;45.07;;;11.50;99.90;10.80;99863;;;;562556;255;24168;-83
2022/10/15 07:25:14;;;;;;;97.40;46.67;;;11.60;99.90;11.00;99874;;;;552157;254;24176;-81
2022/10/15 07:27:42;;;;;;;93.03;46.90;;;11.70;99.90;11.20;99873;;;;553813;255;24157;-80
2022/10/15 07:30:10;;;;;;;83.87;43.53;;;12.20;99.90;11.40;99880;;;;562427;255;24308;-81
2022/10/15 07:32:39;;;;;;;89.33;46.17;;;12.30;99.90;11.60;99882;;;;562596;250;24126;-81
2022/10/15 07:35:08;;;;;;;84.17;45.97;;;12.50;99.90;11.70;99877;;;;562434;255;24210;-81
2022/10/15 07:37:36;;;;;;;83.87;47.13;;;12.70;99.90;11.90;99884;;;;562514;255;24138;-79
2022/10/15 07:40:04;;;;;;;81.53;46.80;;;12.60;99.90;12.00;99882;;;;562363;255;24150;-81
2022/10/15 07:42:32;;;;;;;81.67;44.10;;;12.80;99.90;12.30;99883;;;;562588;255;24182;-81
2022/10/15 07:45:00;;;;;;;79.37;42.17;;;13.00;99.90;12.50;99886;;;;562479;250;24185;-81
2022/10/15 07:47:28;;;;;;;81.93;44.13;;;13.30;99.90;12.70;99877;;;;562466;250;24130;-80
2022/10/15 07:49:56;;;;;;;71.50;43.47;;;13.40;99.90;13.00;99875;;;;562465;251;24131;-81
2022/10/15 07:52:24;;;;;;;72.70;41.10;;;13.70;99.90;13.10;99877;;;;562083;255;24216;-80
2022/10/15 07:54:52;;;;;;;66.53;40.63;;;13.90;99.90;13.10;99875;;;;562216;255;24180;-81
2022/10/15 07:57:23;;;;;;;66.57;40.23;;;14.00;99.90;13.30;99886;;;;562130;251;24173;-79
2022/10/15 07:59:48;;;;;;;57.90;37.27;;;14.10;99.90;13.30;99892;;;;561864;251;24195;-79
2022/10/15 08:02:20;;;;;;;55.67;34.63;;;14.10;99.90;13.30;99873;;;;562211;250;24159;-81
2022/10/15 08:04:46;;;;;;;61.87;35.47;;;14.20;99.90;13.40;99861;;;;554436;259;24175;-79
2022/10/15 08:07:14;;;;;;;49.33;33.90;;;14.20;99.90;13.40;99869;;;;572396;247;24158;-80
2022/10/15 08:10:22;;;;;;;48.87;33.57;;;14.20;99.90;13.50;99869;;;;554032;255;24185;-83
2022/10/15 08:12:51;;;;;;;51.27;32.77;;;14.60;99.90;13.90;99857;;;;553818;255;24165;-83
2022/10/15 08:15:20;;;;;;;51.60;34.53;;;14.90;99.90;14.20;99865;;;;563119;250;24143;-84
2022/10/15 08:17:48;;;;;;;46.77;32.23;;;14.80;99.90;14.80;99866;;;;563394;250;24196;-83
2022/10/15 08:20:15;;;;;;;45.00;32.27;;;15.30;99.90;15.00;99871;;;;562941;250;24274;-83
2022/10/15 08:22:44;;;;;;;43.30;30.07;;;15.60;99.90;14.90;99866;;;;554794;254;24148;-83
2022/10/15 08:25:12;;;;;;;41.20;29.53;;;15.60;99.90;14.70;99861;;;;562720;254;24170;-82
2022/10/15 08:27:40;;;;;;;49.17;30.77;;;15.50;99.90;14.50;99857;;;;562719;254;24152;-80
2022/10/15 08:30:08;;;;;;;43.80;29.57;;;15.30;99.90;14.40;99860;;;;562569;254;24157;-82
2022/10/15 08:32:36;;;;;;;43.83;29.57;;;15.20;99.90;14.50;99868;;;;554533;254;24210;-81
2022/10/15 08:35:07;;;;;;;43.80;29.43;;;15.20;99.90;14.80;99865;;;;562458;255;24141;-82
2022/10/15 08:37:32;;;;;;;44.73;37.37;;;15.30;99.90;15.00;99859;;;;557281;255;37383;-83
2022/10/15 08:40:00;;;;;;;47.25;39.92;;;15.60;99.90;15.10;99867;;;;554745;254;46633;-83
2022/10/15 08:42:41;;;;;;;42.20;30.83;;;15.70;99.90;15.10;99863;;;;562397;251;24178;-81
2022/10/15 08:45:15;;;;;;;43.40;29.00;;;15.70;99.90;15.10;99859;;;;562707;250;24159;-82
2022/10/15 08:47:57;;;;;;;41.90;29.93;;;15.80;99.90;15.20;99863;;;;562653;250;24156;-83
2022/10/15 08:50:40;;;;;;;40.20;27.67;;;15.90;99.90;15.40;99859;;;;562466;250;24201;-84
2022/10/15 08:53:17;;;;;;;43.20;28.37;;;16.00;99.90;15.40;99865;;;;562041;252;24149;-83
2022/10/15 08:55:46;;;;;;;42.77;27.80;;;16.30;99.90;15.60;99867;;;;562056;251;24209;-82
2022/10/15 08:58:29;;;;;;;39.43;28.70;;;16.60;99.90;16.00;99870;;;;562228;250;24165;-82
2022/10/15 09:01:04;;;;;;;41.20;27.07;;;17.90;99.90;17.70;99869;;;;553126;255;24217;-83
2022/10/15 09:04:09;;;;;;;38.67;27.50;;;17.90;99.90;19.60;99880;;;;562189;251;24157;-82
2022/10/15 09:06:36;;;;;;;39.77;28.33;;;19.80;99.90;20.50;99874;;;;562063;250;24169;-81
2022/10/15 09:09:22;;;;;;;36.47;26.83;;;21.00;99.90;20.40;99875;;;;561975;255;24153;-84
2022/10/15 09:11:59;;;;;;;34.97;27.03;;;21.20;99.90;19.60;99881;;;;562100;254;24294;-81
2022/10/15 09:14:29;;;;;;;37.85;32.13;;;20.70;99.90;19.10;99870;;;;555843;255;35672;-80
2022/10/15 09:17:01;;;;;;;37.67;29.43;;;20.20;99.90;19.40;99876;;;;562118;251;24160;-80
2022/10/15 09:19:27;;;;;;;32.47;27.53;;;20.60;99.90;19.90;99869;;;;561995;253;24175;-83
2022/10/15 09:21:55;;;;;;;30.87;26.83;;;21.10;99.90;20.40;99874;;;;562172;250;24161;-83
2022/10/15 09:24:26;;;;;;;38.87;28.90;;;21.10;99.90;20.50;99866;;;;559140;255;24168;-84
2022/10/15 09:27:03;;;;;;;31.73;27.07;;;21.30;99.90;20.20;99869;;;;562770;250;23165;-81
2022/10/15 09:29:36;;;;;;;34.10;25.80;;;21.20;99.90;20.40;99877;;;;554979;254;24145;-82
2022/10/15 09:32:43;;;;;;;31.43;25.40;;;21.20;99.90;20.60;99876;;;;563257;249;23170;-84
2022/10/15 09:35:23;;;;;;;29.73;25.47;;;21.40;99.90;20.40;99866;;;;560522;250;24107;-83
2022/10/15 09:38:00;;;;;;;28.37;24.93;;;21.30;99.90;20.00;99879;;;;572564;250;24180;-82
2022/10/15 09:40:40;;;;;;;28.10;24.57;;;20.90;99.90;19.50;99876;;;;564537;250;24220;-82
2022/10/15 09:43:11;;;;;;;29.77;24.17;;;20.40;99.90;18.90;99873;;;;565242;250;24110;-83
2022/10/15 09:45:39;;;;;;;32.80;23.80;;;19.30;99.90;18.30;99873;;;;564907;250;24156;-82
2022/10/15 09:48:05;;;;;;;29.17;23.97;;;18.80;99.90;18.00;99867;;;;565466;250;24142;-82
2022/10/15 09:50:36;;;;;;;31.50;22.77;;;18.60;99.90;17.90;99868;;;;563175;250;25183;-83
2022/10/15 09:53:18;;;;;;;36.57;24.27;;;18.60;99.90;17.70;99868;;;;544766;256;24112;-82
2022/10/15 09:56:04;;;;;;;34.17;22.63;;;18.40;99.90;17.60;99870;;;;551816;255;24128;-81
2022/10/15 09:58:50;;;;;;;31.50;22.87;;;18.40;99.90;17.40;99870;;;;571983;250;24158;-85
2022/10/15 10:01:21;;;;;;;32.50;24.33;;;18.00;99.90;17.30;99871;;;;537671;264;24182;-81
2022/10/15 10:03:52;;;;;;;31.47;23.03;;;18.00;99.90;17.20;99872;;;;556987;255;24208;-83
2022/10/15 10:06:21;;;;;;;32.93;24.50;;;17.90;99.90;17.10;99869;;;;563738;249;24122;-83
2022/10/15 10:08:50;;;;;;;36.03;23.80;;;17.70;99.90;17.10;99866;;;;561467;253;24193;-83
2022/10/15 10:11:21;;;;;;;37.27;25.00;;;17.70;99.90;17.10;99873;;;;560123;247;24148;-81
2022/10/15 10:13:48;;;;;;;33.97;23.83;;;17.60;99.90;17.00;99865;;;;553198;255;24149;-84
2022/10/15 10:16:16;;;;;;;35.87;24.97;;;17.60;99.90;16.90;99867;;;;565146;250;24187;-83
2022/10/15 10:18:49;;;;;;;30.27;23.30;;;17.50;99.90;16.80;99868;;;;559298;254;24153;-82
2022/10/15 10:21:23;;;;;;;31.70;24.17;;;17.40;99.90;16.60;99861;;;;557462;250;24128;-80
2022/10/15 10:23:51;;;;;;;33.17;25.77;;;17.20;99.90;16.40;99858;;;;534360;264;24311;-83
2022/10/15 10:26:19;;;;;;;34.90;24.87;;;17.10;99.90;16.30;99865;;;;563906;250;24157;-80
2022/10/15 10:28:52;;;;;;;35.83;25.17;;;17.00;99.90;16.20;99868;;;;574698;246;24070;-78
2022/10/15 10:31:27;;;;;;;33.37;24.87;;;16.70;99.90;16.10;99872;;;;547807;253;24156;-78
2022/10/15 10:33:55;;;;;;;37.17;24.93;;;16.70;99.90;16.00;99878;;;;556143;250;24086;-78
2022/10/15 10:36:29;;;;;;;34.50;24.33;;;16.50;99.90;15.90;99875;;;;557161;254;24174;-77
2022/10/15 10:39:12;;;;;;;31.63;23.00;;;16.50;99.90;15.80;99873;;;;552828;255;24198;-76
2022/10/15 10:42:17;;;;;;;34.00;24.17;;;16.40;99.90;15.70;99877;;;;557429;255;24120;-77
2022/10/15 10:44:45;;;;;;;35.60;23.93;;;16.30;99.90;15.60;99872;;;;550700;258;24179;-77
2022/10/15 10:47:21;;;;;;;32.47;24.90;;;16.20;99.90;15.50;99872;;;;553088;250;24148;-78
2022/10/15 10:49:49;;;;;;;34.10;24.23;;;16.10;99.90;15.40;99861;;;;568331;249;24096;-76
2022/10/15 10:52:26;;;;;;;34.07;24.90;;;16.00;99.90;15.30;99873;;;;565111;250;24163;-80
2022/10/15 10:55:18;;;;;;;35.63;24.63;;;15.90;99.90;15.20;99866;;;;551218;258;24178;-79
2022/10/15 10:57:53;;;;;;;39.47;25.27;;;15.80;99.90;15.20;99872;;;;562432;247;24123;-79
2022/10/15 11:00:22;;;;;;;41.53;26.83;;;15.70;99.90;15.20;99866;;;;550034;255;24162;-77
2022/10/15 11:02:51;;;;;;;39.10;25.17;;;15.90;99.90;15.30;99867;;;;569342;245;24094;-76
2022/10/15 11:05:20;;;;;;;38.67;27.17;;;15.90;99.90;15.40;99864;;;;561312;254;24144;-77
2022/10/15 11:08:11;;;;;;;33.80;24.53;;;15.90;99.90;15.50;99868;;;;556453;250;24117;-81
2022/10/15 11:10:48;;;;;;;32.87;22.60;;;16.00;99.90;15.60;99867;;;;548316;254;24144;-79
2022/10/15 11:13:43;;;;;;;33.63;22.63;;;16.10;99.90;15.60;99871;;;;556568;250;25314;-77
2022/10/15 11:16:12;;;;;;;34.67;20.93;;;16.30;99.90;15.60;99869;;;;555693;255;24242;-82
2022/10/15 11:18:52;;;;;;;32.37;21.60;;;16.30;99.90;15.70;99863;;;;550882;255;25226;-77
2022/10/15 11:21:38;;;;;;;31.03;22.10;;;16.30;99.90;15.70;99863;;;;567765;246;24081;-78
2022/10/15 11:24:20;;;;;;;32.07;21.93;;;16.30;99.90;15.80;99868;;;;565576;250;24222;-82
2022/10/15 11:27:15;;;;;;;30.87;22.10;;;16.40;99.90;16.00;99857;;;;538845;260;26337;-82